Time;durP1;ratioP1;P1;durP2;ratioP2;P2;SDS_P1;SDS_P2;PMS_P1;PMS_P2;Temp;Humidity;BMP_temperature;BMP_pressure;BME280_temperature;BME280_humidity;BME280_pressure;Samples;Min_cycle;Max_cycle;Signal;HPM_P1;HPM_P2
2022/05/26 00:00:56;;;;;;;10.70;3.55;;;22.00;59.20;;;;;;5039210;28;20032;-62
2022/05/26 00:03:21;;;;;;;11.57;4.03;;;22.00;59.00;;;;;;5045142;28;20051;-63
2022/05/26 00:05:47;;;;;;;10.45;4.28;;;21.90;58.90;;;;;;5039671;28;20111;-61
2022/05/26 00:08:12;;;;;;;11.77;3.38;;;21.90;59.00;;;;;;5041192;28;20036;-61
2022/05/26 00:10:38;;;;;;;11.85;3.38;;;21.90;59.00;;;;;;5038456;28;20112;-62
2022/05/26 00:13:05;;;;;;;12.10;2.70;;;21.90;59.30;;;;;;5025268;28;20332;-62
2022/05/26 00:15:31;;;;;;;10.77;3.40;;;21.90;59.40;;;;;;5022324;28;20100;-61
2022/05/26 00:17:57;;;;;;;15.30;3.60;;;21.90;59.20;;;;;;5042513;28;20025;-61
2022/05/26 00:20:23;;;;;;;12.25;4.45;;;21.80;59.20;;;;;;5006250;28;20083;-61
2022/05/26 00:22:48;;;;;;;9.93;5.60;;;21.80;59.20;;;;;;5023863;28;20037;-61
2022/05/26 00:25:14;;;;;;;14.95;4.63;;;21.80;59.30;;;;;;5040537;28;20412;-61
2022/05/26 00:27:39;;;;;;;15.32;4.53;;;21.80;59.30;;;;;;5024639;28;20515;-61
2022/05/26 00:30:06;;;;;;;9.40;3.53;;;21.80;59.50;;;;;;5039647;28;20089;-62
2022/05/26 00:32:32;;;;;;;8.10;3.03;;;21.80;59.60;;;;;;5040459;28;20108;-61
2022/05/26 00:34:57;;;;;;;11.63;3.00;;;21.80;59.70;;;;;;5035901;28;20160;-61
2022/05/26 00:37:23;;;;;;;6.38;2.67;;;21.70;59.80;;;;;;5041568;28;20086;-61
2022/05/26 00:39:48;;;;;;;9.68;3.03;;;21.70;60.00;;;;;;5040341;28;20127;-63
2022/05/26 00:42:14;;;;;;;5.82;2.65;;;21.70;60.00;;;;;;5040886;28;20025;-62
2022/05/26 00:44:39;;;;;;;7.35;2.88;;;21.70;60.00;;;;;;5042442;28;20376;-61
2022/05/26 00:47:09;;;;;;;15.73;3.10;;;21.60;60.00;;;;;;5041178;28;20488;-61
2022/05/26 00:49:47;;;;;;;10.32;3.35;;;21.60;60.00;;;;;;5036981;28;20153;-63
2022/05/26 00:52:24;;;;;;;6.35;2.92;;;21.60;60.00;;;;;;5039814;28;20045;-64
2022/05/26 00:54:50;;;;;;;9.50;3.22;;;21.50;60.00;;;;;;5024569;28;20183;-62
2022/05/26 00:57:25;;;;;;;7.57;3.05;;;21.60;60.30;;;;;;5022818;28;20324;-62
2022/05/26 01:00:10;;;;;;;8.70;2.95;;;21.50;60.30;;;;;;5024085;28;20167;-62
2022/05/26 01:02:38;;;;;;;5.38;2.70;;;21.50;60.40;;;;;;5037069;28;20116;-65
2022/05/26 01:05:13;;;;;;;9.93;3.67;;;21.50;60.60;;;;;;5035487;28;20032;-61
2022/05/26 01:07:38;;;;;;;9.23;4.18;;;21.50;60.70;;;;;;5025851;28;20025;-61
2022/05/26 01:10:05;;;;;;;11.00;3.97;;;21.50;60.80;;;;;;5039094;28;20052;-61
2022/05/26 01:12:30;;;;;;;9.07;3.60;;;21.50;60.90;;;;;;5024903;28;20127;-63
2022/05/26 01:14:59;;;;;;;7.25;3.60;;;21.50;61.00;;;;;;5019301;28;20071;-62
2022/05/26 01:18:05;;;;;;;9.45;3.22;;;21.40;61.00;;;;;;5039101;28;20483;-62
2022/05/26 01:20:53;;;;;;;7.00;3.67;;;21.40;61.10;;;;;;5040311;28;20275;-61
2022/05/26 01:23:56;;;;;;;11.77;3.70;;;21.40;61.20;;;;;;5020596;28;20501;-61
2022/05/26 01:27:00;;;;;;;11.85;2.85;;;21.40;61.30;;;;;;5039564;28;20048;-61
2022/05/26 01:29:43;;;;;;;5.32;2.60;;;21.30;61.50;;;;;;5025810;28;20118;-61
2022/05/26 01:32:32;;;;;;;6.55;2.88;;;21.40;61.50;;;;;;5041615;28;20033;-62
2022/05/26 01:35:17;;;;;;;5.95;2.60;;;21.30;61.40;;;;;;5038046;28;20037;-62
2022/05/26 01:38:02;;;;;;;7.80;3.05;;;21.30;61.40;;;;;;5038060;28;20027;-61
2022/05/26 01:40:52;;;;;;;5.68;2.42;;;21.30;61.60;;;;;;5033892;28;20520;-62
2022/05/26 01:43:54;;;;;;;6.18;2.65;;;21.30;61.70;;;;;;5040289;28;20041;-61
2022/05/26 01:46:20;;;;;;;5.60;2.95;;;21.30;61.60;;;;;;5038470;28;20086;-62
2022/05/26 01:48:51;;;;;;;5.18;2.85;;;21.30;61.80;;;;;;5039182;28;20037;-61
2022/05/26 01:51:26;;;;;;;5.78;2.90;;;21.20;61.90;;;;;;5021127;28;20223;-61
2022/05/26 01:53:56;;;;;;;8.00;2.80;;;21.20;62.00;;;;;;5010278;28;20048;-62
2022/05/26 01:56:28;;;;;;;8.23;2.67;;;21.10;62.00;;;;;;5036679;28;20032;-61
2022/05/26 01:59:10;;;;;;;6.07;2.65;;;21.10;62.10;;;;;;5037173;28;20060;-61
2022/05/26 02:01:39;;;;;;;6.20;2.65;;;21.10;62.30;;;;;;5021586;28;20079;-62
2022/05/26 02:04:08;;;;;;;4.90;2.83;;;21.10;62.30;;;;;;5036143;28;20075;-61
2022/05/26 02:06:36;;;;;;;4.55;2.30;;;21.00;62.30;;;;;;5020344;28;20128;-61
2022/05/26 02:09:06;;;;;;;9.52;2.83;;;21.00;62.30;;;;;;5021913;28;20040;-62
2022/05/26 02:11:33;;;;;;;8.43;2.70;;;21.00;62.30;;;;;;5021244;28;20029;-62
2022/05/26 02:14:07;;;;;;;5.22;2.35;;;20.90;62.40;;;;;;5038607;28;20144;-62
2022/05/26 02:16:43;;;;;;;5.47;2.50;;;20.90;63.10;;;;;;5018748;28;20028;-61
2022/05/26 02:19:21;;;;;;;5.47;2.53;;;20.90;62.50;;;;;;5020738;28;20388;-61
2022/05/26 02:21:58;;;;;;;4.70;2.30;;;20.90;62.70;;;;;;5020557;28;20488;-62
2022/05/26 02:24:31;;;;;;;8.15;2.53;;;20.90;62.70;;;;;;5022693;28;20029;-62
2022/05/26 02:26:57;;;;;;;3.05;2.30;;;20.90;62.80;;;;;;5039879;28;20064;-61
2022/05/26 02:32:07;;;;;;;10.63;2.97;;;20.80;62.70;;;;;;5036960;28;20396;-61
2022/05/26 02:34:32;;;;;;;5.82;3.10;;;20.80;62.90;;;;;;5036085;28;20037;-61
2022/05/26 02:36:58;;;;;;;5.55;3.33;;;20.80;63.00;;;;;;5020195;28;20167;-61
2022/05/26 02:39:23;;;;;;;8.52;3.20;;;20.70;62.90;;;;;;5035751;28;20033;-62
2022/05/26 02:41:49;;;;;;;5.07;2.78;;;20.70;63.00;;;;;;5037723;28;20874;-61
2022/05/26 02:44:14;;;;;;;8.02;2.80;;;20.70;63.10;;;;;;5037362;28;20025;-61
2022/05/26 02:47:34;;;;;;;6.55;2.30;;;20.70;63.10;;;;;;5016743;28;20049;-61
2022/05/26 02:50:08;;;;;;;6.97;2.67;;;20.70;63.30;;;;;;5003459;28;20092;-61
2022/05/26 02:52:42;;;;;;;10.93;3.13;;;20.60;63.20;;;;;;5019107;28;20477;-61
2022/05/26 02:55:20;;;;;;;10.55;3.00;;;20.60;63.50;;;;;;5029990;28;20170;-61
2022/05/26 02:58:08;;;;;;;9.70;3.00;;;20.60;63.60;;;;;;5040269;28;20032;-62
2022/05/26 03:00:56;;;;;;;5.40;2.63;;;20.60;63.50;;;;;;5035488;28;20024;-61
2022/05/26 03:03:24;;;;;;;8.07;2.70;;;20.50;63.80;;;;;;5038876;28;20094;-61
2022/05/26 03:06:07;;;;;;;7.47;2.70;;;20.50;63.80;;;;;;5040727;28;20028;-62
2022/05/26 03:08:36;;;;;;;7.20;2.47;;;20.50;63.90;;;;;;5039538;28;20120;-60
2022/05/26 03:11:10;;;;;;;5.50;2.20;;;20.40;64.00;;;;;;5039823;28;20040;-61
2022/05/26 03:13:36;;;;;;;8.48;2.75;;;20.40;64.00;;;;;;5042296;28;21000;-62
2022/05/26 03:16:02;;;;;;;9.02;2.60;;;20.40;64.10;;;;;;5022955;28;20044;-62
2022/05/26 03:18:28;;;;;;;11.70;2.60;;;20.40;64.20;;;;;;5026299;28;20042;-62
2022/05/26 03:20:54;;;;;;;5.40;2.55;;;20.30;64.20;;;;;;5026192;28;20029;-63
2022/05/26 03:23:20;;;;;;;12.00;2.45;;;20.30;64.20;;;;;;5038630;28;20131;-61
2022/05/26 03:25:45;;;;;;;8.60;2.65;;;20.30;64.30;;;;;;5036742;28;20128;-61
2022/05/26 03:28:11;;;;;;;10.38;2.28;;;20.40;64.50;;;;;;5040153;28;20025;-63
2022/05/26 03:30:38;;;;;;;3.47;1.90;;;20.30;64.40;;;;;;5043175;28;20028;-61
2022/05/26 03:33:03;;;;;;;6.13;2.05;;;20.30;64.80;;;;;;5044069;28;20595;-61
2022/05/26 03:40:57;;;;;;;7.60;3.22;;;20.30;64.60;;;;;;5038929;28;20098;-62
2022/05/26 03:43:28;;;;;;;7.07;2.50;;;20.20;64.70;;;;;;5026828;28;20037;-63
2022/05/26 03:45:53;;;;;;;8.00;2.78;;;20.20;64.70;;;;;;5038982;28;20616;-61
2022/05/26 03:48:19;;;;;;;6.70;2.85;;;20.20;64.90;;;;;;5042814;28;20032;-62
2022/05/26 03:50:44;;;;;;;5.25;2.42;;;20.20;64.90;;;;;;5041179;28;20049;-61
2022/05/26 03:53:10;;;;;;;3.42;2.47;;;20.20;65.00;;;;;;5040011;28;20455;-62
2022/05/26 03:55:35;;;;;;;5.35;2.30;;;20.10;65.00;;;;;;5039621;28;20491;-62
2022/05/26 03:58:03;;;;;;;6.25;2.42;;;20.10;65.20;;;;;;5042198;28;20542;-62
2022/05/26 04:00:29;;;;;;;6.40;2.67;;;20.10;65.30;;;;;;5023525;28;20124;-61
2022/05/26 04:02:54;;;;;;;5.90;2.60;;;20.10;65.40;;;;;;5040062;28;20131;-61
2022/05/26 04:05:20;;;;;;;5.60;2.63;;;20.10;65.30;;;;;;5038998;28;20103;-62
2022/05/26 04:07:45;;;;;;;5.25;2.65;;;20.10;65.30;;;;;;5042079;28;20393;-62
2022/05/26 04:10:11;;;;;;;6.72;2.95;;;20.10;65.30;;;;;;5040527;28;20362;-63
2022/05/26 04:12:37;;;;;;;2.85;2.20;;;20.10;65.50;;;;;;5040361;28;20477;-61
2022/05/26 04:15:04;;;;;;;4.97;2.05;;;20.00;65.40;;;;;;5041740;28;20028;-60
2022/05/26 04:17:29;;;;;;;5.32;2.63;;;20.00;65.60;;;;;;5037454;28;20290;-62
2022/05/26 04:19:55;;;;;;;5.80;2.30;;;20.00;65.50;;;;;;5038863;28;20071;-62
2022/05/26 04:22:23;;;;;;;7.50;2.00;;;20.00;65.60;;;;;;5040155;28;20033;-63
2022/05/26 04:24:50;;;;;;;4.25;1.90;;;20.00;65.80;;;;;;5041777;28;20046;-61
2022/05/26 04:27:17;;;;;;;3.22;2.15;;;20.00;65.70;;;;;;5040431;28;20052;-63
2022/05/26 04:29:43;;;;;;;6.78;2.17;;;19.90;65.70;;;;;;5006607;28;20041;-62
2022/05/26 04:32:08;;;;;;;4.47;2.03;;;19.90;65.90;;;;;;5042631;28;20039;-61
2022/05/26 04:34:34;;;;;;;3.85;2.15;;;19.90;65.80;;;;;;5041496;28;20049;-61
2022/05/26 04:36:59;;;;;;;2.97;1.80;;;19.90;66.00;;;;;;5040905;28;20112;-62
2022/05/26 04:39:25;;;;;;;5.50;1.70;;;19.90;66.20;;;;;;5044004;28;20362;-62
2022/05/26 04:41:51;;;;;;;4.30;2.10;;;19.90;66.00;;;;;;5039150;28;21401;-62
2022/05/26 04:44:17;;;;;;;4.95;2.25;;;19.90;66.00;;;;;;5039513;28;20519;-63
2022/05/26 04:46:42;;;;;;;2.47;1.60;;;19.90;66.10;;;;;;5039761;28;20037;-63
2022/05/26 04:49:08;;;;;;;4.97;1.98;;;19.90;66.20;;;;;;5041585;28;20037;-61
2022/05/26 04:51:36;;;;;;;5.72;2.00;;;19.80;66.20;;;;;;5021637;28;20416;-62
2022/05/26 04:54:02;;;;;;;24.40;4.57;;;19.80;66.20;;;;;;5024174;28;20055;-61
2022/05/26 04:56:28;;;;;;;19.35;3.60;;;19.80;66.20;;;;;;5022649;28;20047;-61
2022/05/26 04:58:54;;;;;;;34.05;5.22;;;19.80;66.20;;;;;;5040924;28;20100;-62
2022/05/26 05:01:19;;;;;;;28.88;4.63;;;19.90;66.30;;;;;;5040036;28;20100;-62
2022/05/26 05:03:46;;;;;;;19.05;3.78;;;19.80;66.30;;;;;;5042553;28;20115;-63
2022/05/26 05:06:12;;;;;;;19.92;3.80;;;19.80;66.20;;;;;;5039919;28;20416;-61
2022/05/26 05:08:38;;;;;;;18.70;3.83;;;19.80;66.20;;;;;;5040683;28;20045;-62
2022/05/26 05:11:04;;;;;;;20.52;3.30;;;19.80;66.20;;;;;;5039386;28;20082;-62
2022/05/26 05:13:29;;;;;;;14.52;3.60;;;19.80;66.20;;;;;;5042549;28;20068;-65
2022/05/26 05:16:09;;;;;;;13.88;2.95;;;19.80;66.10;;;;;;5021239;28;20137;-63
2022/05/26 05:18:34;;;;;;;16.10;3.30;;;19.90;66.30;;;;;;5024427;28;20558;-64
2022/05/26 05:21:05;;;;;;;15.48;3.20;;;19.80;66.20;;;;;;5024301;28;20033;-64
2022/05/26 05:23:31;;;;;;;13.27;3.13;;;19.90;66.20;;;;;;5038584;28;20881;-65
2022/05/26 05:25:56;;;;;;;20.55;3.53;;;19.90;66.20;;;;;;5039277;28;20279;-64
2022/05/26 05:28:26;;;;;;;10.95;2.83;;;19.90;66.20;;;;;;5041984;28;20037;-63
2022/05/26 05:30:54;;;;;;;20.55;2.85;;;19.90;66.30;;;;;;5037657;28;20072;-61
2022/05/26 05:33:21;;;;;;;16.75;2.67;;;19.80;66.30;;;;;;5040298;28;20357;-61
2022/05/26 05:35:50;;;;;;;13.98;2.25;;;19.80;66.30;;;;;;5038399;28;20457;-61
2022/05/26 05:38:16;;;;;;;14.50;2.95;;;19.80;66.40;;;;;;5040458;28;20500;-61
2022/05/26 05:40:42;;;;;;;10.05;2.75;;;19.80;66.50;;;;;;5024250;28;20033;-62
2022/05/26 05:43:07;;;;;;;11.18;2.58;;;19.80;66.50;;;;;;5039644;28;20025;-63
2022/05/26 05:45:32;;;;;;;13.35;2.50;;;19.80;66.60;;;;;;5024342;28;20044;-61
2022/05/26 05:47:58;;;;;;;13.02;2.58;;;19.90;66.70;;;;;;5038865;28;20033;-63
2022/05/26 05:50:24;;;;;;;8.88;2.20;;;19.90;66.80;;;;;;5039662;28;20033;-61
2022/05/26 05:52:49;;;;;;;10.00;2.28;;;19.90;66.90;;;;;;5040586;28;20464;-61
2022/05/26 05:55:15;;;;;;;11.82;2.65;;;19.90;66.80;;;;;;5041930;28;20748;-63
2022/05/26 05:57:40;;;;;;;10.40;2.30;;;19.90;66.80;;;;;;5038763;28;20030;-61
2022/05/26 06:00:06;;;;;;;8.95;2.40;;;19.90;66.80;;;;;;5040376;28;20486;-61
2022/05/26 06:02:32;;;;;;;6.00;2.38;;;19.90;66.90;;;;;;5038333;28;20038;-62
2022/05/26 06:04:57;;;;;;;3.28;1.58;;;19.90;67.00;;;;;;5038331;28;20117;-62
2022/05/26 06:07:23;;;;;;;9.15;1.73;;;19.90;67.20;;;;;;5040232;28;20132;-61
2022/05/26 06:09:49;;;;;;;7.75;1.98;;;19.90;67.00;;;;;;5037993;28;20155;-61
2022/05/26 06:12:14;;;;;;;7.22;2.20;;;19.80;67.00;;;;;;5039165;28;20036;-61
2022/05/26 06:14:42;;;;;;;11.15;2.22;;;19.80;67.00;;;;;;5020357;28;20411;-61
2022/05/26 06:17:07;;;;;;;6.18;1.65;;;19.70;67.00;;;;;;5037629;28;20033;-62
2022/05/26 06:19:36;;;;;;;13.15;1.90;;;19.80;67.10;;;;;;5039638;28;20116;-62
2022/05/26 06:22:16;;;;;;;8.30;2.17;;;19.80;67.10;;;;;;5039996;28;20029;-61
2022/05/26 06:24:42;;;;;;;6.00;1.75;;;19.80;67.30;;;;;;5038361;28;20025;-61
2022/05/26 06:29:54;;;;;;;5.70;1.60;;;19.70;67.10;;;;;;5036273;28;20076;-63
2022/05/26 06:37:49;;;;;;;9.48;1.90;;;19.70;67.00;;;;;;5039126;28;20035;-61
2022/05/26 06:40:14;;;;;;;9.95;1.73;;;19.70;67.20;;;;;;5038378;28;20029;-63
2022/05/26 06:42:40;;;;;;;4.50;1.73;;;19.60;67.30;;;;;;5042624;28;20225;-61
2022/05/26 06:45:06;;;;;;;6.00;1.45;;;19.60;67.40;;;;;;5026306;28;20027;-62
2022/05/26 06:47:32;;;;;;;3.97;1.58;;;19.60;67.30;;;;;;5040338;28;20020;-62
2022/05/26 06:49:57;;;;;;;5.28;1.50;;;19.60;67.40;;;;;;5040182;28;20025;-61
2022/05/26 06:52:23;;;;;;;9.68;1.88;;;19.50;67.30;;;;;;5038638;28;20031;-61
2022/05/26 06:54:49;;;;;;;7.15;1.38;;;19.50;67.40;;;;;;5035652;28;20484;-62
2022/05/26 06:57:15;;;;;;;3.47;1.30;;;19.50;67.30;;;;;;5040090;28;20028;-61
2022/05/26 06:59:40;;;;;;;2.83;1.20;;;19.50;67.40;;;;;;5023840;28;20467;-62
2022/05/26 07:02:08;;;;;;;4.40;1.25;;;19.50;67.40;;;;;;5042504;28;20127;-63
2022/05/26 07:04:33;;;;;;;6.63;1.45;;;19.50;67.40;;;;;;5040307;28;20063;-62
2022/05/26 07:06:59;;;;;;;5.03;1.50;;;19.50;67.40;;;;;;5040849;28;20037;-64
2022/05/26 07:09:25;;;;;;;3.45;1.30;;;19.40;67.30;;;;;;5042090;28;20229;-63
2022/05/26 07:11:51;;;;;;;3.50;1.25;;;19.50;67.30;;;;;;5010795;28;20173;-61
2022/05/26 07:14:17;;;;;;;4.43;1.30;;;19.50;67.40;;;;;;5026819;28;20025;-62
2022/05/26 07:16:44;;;;;;;4.00;1.20;;;19.50;67.30;;;;;;5024026;28;20047;-64
2022/05/26 07:19:11;;;;;;;8.68;1.10;;;19.50;67.40;;;;;;5037678;28;20033;-61
2022/05/26 07:21:36;;;;;;;3.60;0.98;;;19.50;67.30;;;;;;5041350;28;20179;-63
2022/05/26 07:24:02;;;;;;;2.53;1.13;;;19.40;67.30;;;;;;5044056;28;20107;-61
2022/05/26 07:26:32;;;;;;;2.67;0.95;;;19.50;67.20;;;;;;5041046;28;20025;-63
2022/05/26 07:28:58;;;;;;;5.50;0.93;;;19.50;67.30;;;;;;5025590;28;20036;-62
2022/05/26 07:31:23;;;;;;;2.58;1.00;;;19.50;67.00;;;;;;5038494;28;20036;-62
2022/05/26 07:33:49;;;;;;;2.78;1.25;;;19.50;67.00;;;;;;5041530;28;20048;-63
2022/05/26 07:41:44;;;;;;;2.25;0.95;;;19.60;67.20;;;;;;5040639;28;20185;-62
2022/05/26 07:44:09;;;;;;;2.05;0.93;;;19.60;67.00;;;;;;5024449;28;20025;-62
2022/05/26 07:46:35;;;;;;;2.05;1.10;;;19.60;67.00;;;;;;5017666;28;20086;-61
2022/05/26 07:49:01;;;;;;;3.33;0.82;;;19.60;66.80;;;;;;5021871;28;20544;-62
2022/05/26 07:51:26;;;;;;;3.97;1.00;;;19.50;66.80;;;;;;5022590;28;20029;-62
2022/05/26 07:53:52;;;;;;;4.45;0.77;;;19.60;66.70;;;;;;5040377;28;20128;-64
2022/05/26 07:56:18;;;;;;;2.10;0.90;;;19.60;66.80;;;;;;5039094;28;20538;-63
2022/05/26 07:58:43;;;;;;;1.40;0.82;;;19.50;66.80;;;;;;5039848;28;20240;-63
2022/05/26 08:01:10;;;;;;;2.22;0.75;;;19.60;67.00;;;;;;5038781;28;20354;-62
2022/05/26 08:03:37;;;;;;;2.03;1.00;;;19.50;66.90;;;;;;5032892;28;20037;-61
2022/05/26 08:06:02;;;;;;;3.20;0.90;;;19.50;66.90;;;;;;5017094;28;20033;-61
2022/05/26 08:08:33;;;;;;;3.42;1.08;;;19.50;66.90;;;;;;5039984;28;20350;-63
2022/05/26 08:10:59;;;;;;;1.65;0.73;;;19.60;66.50;;;;;;5024300;28;20170;-64
2022/05/26 08:13:24;;;;;;;3.20;1.15;;;19.50;66.30;;;;;;5037372;28;20048;-62
2022/05/26 08:15:50;;;;;;;13.88;1.75;;;19.50;66.30;;;;;;5028780;28;20041;-62
2022/05/26 08:18:16;;;;;;;10.10;1.85;;;19.50;66.40;;;;;;5035841;28;20025;-62
2022/05/26 08:20:41;;;;;;;6.25;1.33;;;19.50;66.60;;;;;;5039252;28;20081;-61
2022/05/26 08:23:07;;;;;;;14.00;2.55;;;19.20;66.60;;;;;;5021710;28;20136;-63
2022/05/26 08:25:34;;;;;;;28.08;3.20;;;19.50;67.30;;;;;;5022044;28;20079;-63
2022/05/26 08:27:59;;;;;;;21.48;3.03;;;19.60;66.70;;;;;;5036107;28;20037;-62
2022/05/26 08:30:25;;;;;;;17.98;2.35;;;19.60;66.70;;;;;;5035009;28;20033;-62
2022/05/26 08:32:52;;;;;;;36.75;3.42;;;19.60;66.50;;;;;;5036818;28;20061;-61
2022/05/26 08:35:18;;;;;;;26.65;3.35;;;19.60;66.40;;;;;;5035555;28;20044;-62
2022/05/26 08:37:43;;;;;;;29.83;4.22;;;19.60;66.10;;;;;;5037031;28;20041;-63
2022/05/26 08:40:11;;;;;;;30.90;3.33;;;19.60;66.10;;;;;;5033648;28;20102;-63
2022/05/26 08:42:37;;;;;;;28.27;3.83;;;19.70;66.00;;;;;;5033015;28;20036;-63
2022/05/26 08:45:12;;;;;;;28.98;3.83;;;19.70;65.60;;;;;;5031810;28;20085;-62
2022/05/26 08:47:45;;;;;;;56.57;6.57;;;19.70;65.90;;;;;;5031489;28;20057;-61
2022/05/26 08:50:14;;;;;;;65.03;6.82;;;19.70;65.60;;;;;;5035730;28;20657;-62
2022/05/26 08:52:46;;;;;;;54.85;5.70;;;19.90;65.80;;;;;;5034210;28;20505;-63
2022/05/26 08:55:17;;;;;;;59.75;5.53;;;19.80;65.40;;;;;;5022042;28;20033;-61
2022/05/26 08:57:44;;;;;;;206.02;23.17;;;19.90;65.40;;;;;;5035298;28;20024;-63
2022/05/26 09:00:13;;;;;;;72.57;10.68;;;19.90;65.60;;;;;;5036394;28;20115;-62
2022/05/26 09:02:38;;;;;;;62.40;8.02;;;19.90;65.70;;;;;;5033128;28;20033;-63
2022/05/26 09:05:08;;;;;;;38.97;6.80;;;20.10;65.70;;;;;;5031963;28;20036;-62
2022/05/26 09:13:10;;;;;;;125.35;16.02;;;20.00;65.70;;;;;;5030111;28;20055;-62
2022/05/26 09:15:36;;;;;;;71.75;7.78;;;20.10;66.20;;;;;;5032573;28;20449;-63
2022/05/26 09:18:16;;;;;;;92.97;11.38;;;20.10;66.00;;;;;;5036553;28;20496;-62
2022/05/26 09:20:42;;;;;;;76.40;8.57;;;20.20;65.80;;;;;;5035653;28;20472;-62
2022/05/26 09:23:13;;;;;;;161.70;19.13;;;20.20;65.40;;;;;;5033701;28;20121;-62
2022/05/26 09:25:50;;;;;;;73.03;9.65;;;20.30;65.50;;;;;;5002187;28;20178;-62
2022/05/26 09:28:33;;;;;;;67.60;9.38;;;20.30;65.30;;;;;;5014718;28;20115;-62
2022/05/26 09:31:17;;;;;;;56.67;7.50;;;20.30;65.20;;;;;;5033361;28;20052;-62
2022/05/26 09:33:43;;;;;;;58.03;7.40;;;20.30;65.30;;;;;;5035041;28;20054;-60
2022/05/26 09:36:21;;;;;;;93.60;9.68;;;20.30;65.10;;;;;;5035271;28;20038;-61
2022/05/26 09:38:47;;;;;;;70.07;9.13;;;20.40;65.10;;;;;;5038615;28;20033;-61
2022/05/26 09:41:15;;;;;;;47.92;7.20;;;20.40;65.10;;;;;;5021383;28;20044;-62
2022/05/26 09:43:45;;;;;;;80.43;9.18;;;20.40;65.60;;;;;;5020150;28;20527;-62
2022/05/26 09:46:11;;;;;;;76.55;8.90;;;20.40;65.50;;;;;;5037009;28;20040;-61
2022/05/26 09:48:37;;;;;;;96.45;9.85;;;20.40;65.30;;;;;;5036922;28;20389;-61
2022/05/26 09:51:14;;;;;;;111.13;10.30;;;20.50;65.90;;;;;;5037945;28;20116;-61
2022/05/26 09:53:44;;;;;;;78.22;8.18;;;20.50;65.90;;;;;;5038764;28;20628;-62
2022/05/26 09:56:40;;;;;;;90.82;9.60;;;20.50;65.30;;;;;;5033826;28;20059;-62
2022/05/26 09:59:22;;;;;;;60.22;8.35;;;20.60;65.60;;;;;;5035365;28;20437;-61
2022/05/26 10:01:47;;;;;;;108.38;11.77;;;20.60;65.40;;;;;;5036718;28;20541;-62
2022/05/26 10:04:41;;;;;;;106.15;10.25;;;20.70;65.70;;;;;;5019046;28;20026;-63
2022/05/26 10:07:12;;;;;;;86.15;8.30;;;20.70;65.60;;;;;;5028942;28;20120;-62
2022/05/26 10:09:59;;;;;;;111.45;9.57;;;20.70;65.20;;;;;;5017449;28;20219;-61
2022/05/26 10:12:33;;;;;;;86.07;9.27;;;20.80;65.40;;;;;;5035443;28;20025;-62
2022/05/26 10:15:19;;;;;;;82.28;9.00;;;20.70;65.10;;;;;;5041562;28;20128;-62
2022/05/26 10:17:59;;;;;;;81.95;9.57;;;20.80;65.30;;;;;;5037012;28;20535;-63
2022/05/26 10:20:36;;;;;;;67.97;8.13;;;20.90;65.40;;;;;;5039361;28;20094;-62
2022/05/26 10:23:20;;;;;;;65.53;6.80;;;20.80;65.10;;;;;;5035738;28;20051;-63
2022/05/26 10:26:13;;;;;;;65.13;8.43;;;20.90;65.00;;;;;;5039760;28;20056;-62
2022/05/26 10:28:50;;;;;;;76.78;9.68;;;20.90;64.90;;;;;;5041250;28;20044;-62
2022/05/26 10:31:39;;;;;;;103.82;10.55;;;21.00;64.80;;;;;;5015799;28;20111;-63
2022/05/26 10:34:27;;;;;;;67.63;8.00;;;21.00;64.70;;;;;;5035680;28;20141;-62
2022/05/26 10:37:10;;;;;;;76.75;9.05;;;21.10;64.70;;;;;;5032486;28;22075;-64
2022/05/26 10:39:39;;;;;;;164.45;16.48;;;21.00;64.60;;;;;;5022251;28;20024;-62
2022/05/26 10:42:27;;;;;;;117.00;12.48;;;21.10;64.60;;;;;;5033806;28;20036;-63
2022/05/26 10:45:02;;;;;;;83.65;8.50;;;21.20;64.40;;;;;;5024695;28;20028;-62
2022/05/26 10:47:39;;;;;;;57.25;7.40;;;21.20;64.10;;;;;;5033703;28;20025;-62
2022/05/26 10:50:16;;;;;;;106.70;12.00;;;21.20;63.90;;;;;;5029867;28;20029;-62
2022/05/26 10:52:44;;;;;;;64.28;8.80;;;21.30;63.70;;;;;;5023094;28;20033;-62
2022/05/26 10:55:21;;;;;;;81.85;9.85;;;21.40;63.50;;;;;;5035283;28;20040;-63
2022/05/26 10:57:57;;;;;;;98.05;9.25;;;21.40;63.00;;;;;;5021094;28;20029;-63
2022/05/26 11:00:23;;;;;;;;;;;21.50;63.30;;;;;;5031725;28;20112;-62
2022/05/26 11:02:54;;;;;;;79.38;8.90;;;21.50;62.40;;;;;;5035443;28;19916;-63
2022/05/26 11:05:51;;;;;;;197.55;21.23;;;21.60;62.40;;;;;;5037590;28;20068;-63
2022/05/26 11:08:23;;;;;;;84.90;10.13;;;21.70;62.50;;;;;;5027550;28;20041;-63
2022/05/26 11:11:14;;;;;;;143.15;14.43;;;21.80;61.70;;;;;;5039192;28;20037;-62
2022/05/26 11:13:55;;;;;;;71.30;8.27;;;21.90;61.80;;;;;;5017392;28;20930;-63
2022/05/26 11:19:26;;;;;;;75.28;9.32;;;22.10;61.60;;;;;;5037272;28;20102;-63
2022/05/26 11:21:52;;;;;;;80.97;10.50;;;22.10;61.60;;;;;;5033629;28;20171;-62
2022/05/26 11:24:17;;;;;;;65.65;7.32;;;22.10;61.70;;;;;;5032369;28;20090;-62
2022/05/26 11:26:50;;;;;;;58.58;7.03;;;22.10;61.60;;;;;;5028095;28;20053;-64
2022/05/26 11:29:31;;;;;;;54.25;6.32;;;22.20;61.60;;;;;;5026041;28;20044;-62
2022/05/26 11:38:14;;;;;;;55.90;6.95;;;22.50;60.80;;;;;;5037599;28;20085;-62
2022/05/26 11:40:50;;;;;;;;;;;22.60;60.50;;;;;;5030425;28;20076;-63
2022/05/26 11:43:24;;;;;;;75.85;7.55;;;22.70;60.10;;;;;;5032027;28;19917;-62
2022/05/26 11:45:51;;;;;;;60.40;7.00;;;22.80;60.00;;;;;;5019075;28;20025;-62
2022/05/26 11:48:38;;;;;;;52.33;5.68;;;22.90;60.00;;;;;;5020669;28;20061;-63
2022/05/26 11:51:24;;;;;;;32.78;4.65;;;22.90;59.30;;;;;;5032615;28;20056;-62
2022/05/26 11:53:49;;;;;;;;;;;23.00;59.50;;;;;;5036898;28;20156;-63
2022/05/26 11:56:24;;;;;;;63.33;7.95;;;23.10;59.40;;;;;;5031403;28;20066;-62
2022/05/26 11:59:27;;;;;;;51.42;5.68;;;23.10;59.30;;;;;;5030176;28;20116;-62
2022/05/26 12:01:59;;;;;;;59.05;7.55;;;23.10;59.00;;;;;;5030036;28;20031;-63
2022/05/26 12:04:28;;;;;;;38.40;6.25;;;23.10;59.00;;;;;;5035823;28;20032;-63
2022/05/26 12:06:56;;;;;;;58.47;5.50;;;23.10;58.90;;;;;;5031850;28;20120;-62
2022/05/26 12:09:32;;;;;;;31.20;3.65;;;23.10;58.90;;;;;;5008033;28;20486;-62
2022/05/26 12:12:01;;;;;;;50.17;6.43;;;23.10;58.80;;;;;;5018354;28;20041;-64
2022/05/26 12:14:32;;;;;;;35.47;4.50;;;23.20;58.50;;;;;;5030928;28;20028;-66
2022/05/26 12:17:35;;;;;;;97.38;11.23;;;23.30;58.30;;;;;;5031373;28;20033;-62
2022/05/26 12:20:10;;;;;;;59.50;7.45;;;23.40;58.60;;;;;;5032478;28;20325;-63
2022/05/26 12:22:37;;;;;;;102.07;11.23;;;23.50;58.50;;;;;;5032513;28;20107;-62
2022/05/26 12:25:09;;;;;;;69.65;9.50;;;23.50;58.30;;;;;;5032055;28;20049;-62
2022/05/26 12:27:56;;;;;;;84.50;9.25;;;23.50;58.30;;;;;;5032462;28;20047;-62
2022/05/26 12:30:45;;;;;;;58.95;6.93;;;23.50;58.40;;;;;;5037836;28;20053;-62
2022/05/26 12:33:32;;;;;;;38.10;6.78;;;23.50;58.40;;;;;;5035265;28;20045;-62
2022/05/26 12:36:22;;;;;;;74.32;8.95;;;23.60;58.30;;;;;;5031285;28;20037;-62
2022/05/26 12:39:14;;;;;;;62.17;7.60;;;23.60;58.30;;;;;;5034585;28;20017;-63
2022/05/26 12:42:09;;;;;;;101.88;10.13;;;23.70;58.30;;;;;;5037688;28;20025;-63
2022/05/26 12:45:03;;;;;;;69.22;6.72;;;23.70;58.50;;;;;;5035047;28;20068;-63
2022/05/26 12:47:35;;;;;;;81.05;8.52;;;23.70;58.40;;;;;;5034909;28;20025;-62
2022/05/26 12:50:05;;;;;;;74.40;8.95;;;23.80;58.50;;;;;;5034111;28;20135;-62
2022/05/26 12:52:52;;;;;;;63.38;8.00;;;23.90;58.60;;;;;;5032890;28;20071;-63
2022/05/26 12:55:43;;;;;;;102.68;9.48;;;24.00;58.30;;;;;;5034644;28;20067;-62
2022/05/26 12:58:16;;;;;;;82.88;10.48;;;24.10;58.30;;;;;;5033449;28;20094;-64
2022/05/26 13:00:49;;;;;;;151.48;14.45;;;24.10;58.20;;;;;;5030787;28;20062;-63
2022/05/26 13:03:27;;;;;;;105.45;10.57;;;24.20;58.20;;;;;;5011433;28;20029;-62
2022/05/26 13:06:07;;;;;;;104.90;12.73;;;24.30;58.60;;;;;;5027054;28;20017;-64
2022/05/26 13:08:43;;;;;;;91.45;9.95;;;24.30;58.10;;;;;;5026423;28;20033;-61
2022/05/26 13:11:15;;;;;;;72.43;9.13;;;24.50;57.90;;;;;;5017405;28;20051;-62
2022/05/26 13:13:42;;;;;;;104.85;9.82;;;24.50;58.00;;;;;;5022519;28;20029;-62
2022/05/26 13:16:23;;;;;;;117.28;13.10;;;24.60;57.90;;;;;;5009714;28;20025;-62
2022/05/26 13:18:48;;;;;;;89.95;9.55;;;24.60;57.70;;;;;;5034322;28;20028;-62
2022/05/26 13:21:16;;;;;;;450.70;48.55;;;24.70;57.60;;;;;;5011218;28;20039;-62
2022/05/26 13:23:41;;;;;;;97.10;10.93;;;24.60;57.10;;;;;;5027203;28;20951;-64
2022/05/26 13:26:07;;;;;;;79.65;10.10;;;24.70;57.40;;;;;;5030501;28;20060;-63
2022/05/26 13:28:32;;;;;;;134.20;13.90;;;24.70;57.70;;;;;;5032178;28;20037;-63
2022/05/26 13:33:48;;;;;;;162.50;15.07;;;24.90;57.60;;;;;;5015372;28;20043;-63
2022/05/26 13:36:29;;;;;;;213.93;21.55;;;24.90;57.90;;;;;;5021355;28;20134;-63
2022/05/26 13:38:54;;;;;;;98.60;10.50;;;25.10;57.80;;;;;;5028652;28;20063;-62
2022/05/26 13:41:25;;;;;;;116.95;13.25;;;25.20;57.50;;;;;;5037085;28;20063;-62